Time;durP1;ratioP1;P1;durP2;ratioP2;P2;SDS_P1;SDS_P2;PMS_P1;PMS_P2;Temp;Humidity;BMP_temperature;BMP_pressure;BME280_temperature;BME280_humidity;BME280_pressure;Samples;Min_cycle;Max_cycle;Signal;HPM_P1;HPM_P2
2021/08/30 00:00:07;;;;;;;10.18;8.05;;;;;;;21.10;72.24;98607.55;1713214;83;21010;-41
2021/08/30 00:02:34;;;;;;;13.83;8.50;;;;;;;21.10;72.09;98597.91;1684674;84;21061;-41
2021/08/30 00:05:07;;;;;;;11.78;7.92;;;;;;;21.09;71.93;98598.51;1683976;84;21028;-41
2021/08/30 00:07:34;;;;;;;9.90;7.58;;;;;;;21.09;71.79;98607.38;1703715;84;22067;-41
2021/08/30 00:10:06;;;;;;;10.88;8.28;;;;;;;21.10;71.64;98602.81;1706347;84;21017;-41
2021/08/30 00:12:39;;;;;;;12.70;8.43;;;;;;;21.10;71.57;98605.56;1706504;84;21008;-41
2021/08/30 00:15:01;;;;;;;10.65;8.43;;;;;;;21.08;71.57;98617.63;1695977;84;21526;-41
2021/08/30 00:17:29;;;;;;;10.35;7.58;;;;;;;21.05;71.56;98626.03;1680452;84;21542;-41
2021/08/30 00:19:56;;;;;;;14.65;9.00;;;;;;;21.02;71.64;98633.20;1697250;84;21697;-41
2021/08/30 00:22:24;;;;;;;12.37;8.65;;;;;;;21.01;71.65;98631.65;1679874;84;21140;-41
2021/08/30 00:24:50;;;;;;;11.83;8.60;;;;;;;20.95;71.76;98637.59;1691229;84;20973;-41
2021/08/30 00:27:18;;;;;;;12.37;8.30;;;;;;;20.90;71.95;98641.52;1697819;84;20929;-41
2021/08/30 00:29:45;;;;;;;10.35;8.55;;;;;;;20.83;71.95;98628.75;1680599;84;21555;-41
2021/08/30 00:32:13;;;;;;;12.18;7.92;;;;;;;20.77;72.10;98632.67;1715261;80;20922;-41
2021/08/30 00:34:41;;;;;;;10.28;7.87;;;;;;;20.79;72.09;98641.88;1733148;80;21614;-41
2021/08/30 00:37:09;;;;;;;8.85;7.97;;;;;;;20.81;71.93;98647.13;1771548;80;21221;-42
2021/08/30 00:39:36;;;;;;;9.50;7.80;;;;;;;20.78;71.85;98649.97;1741140;80;21041;-41
2021/08/30 00:42:03;;;;;;;9.95;7.40;;;;;;;20.75;71.78;98650.88;1746382;80;21116;-41
2021/08/30 00:44:30;;;;;;;9.03;7.50;;;;;;;20.75;71.81;98649.50;1722014;80;21080;-41
2021/08/30 00:46:58;;;;;;;9.70;7.58;;;;;;;20.76;71.76;98641.40;1714070;80;20938;-41
2021/08/30 00:49:25;;;;;;;10.88;8.55;;;;;;;20.73;71.90;98643.05;1724086;82;21516;-41
2021/08/30 00:51:51;;;;;;;10.75;7.40;;;;;;;20.69;72.00;98644.37;1743096;82;20954;-41
2021/08/30 00:54:22;;;;;;;12.18;7.10;;;;;;;20.64;72.00;98640.81;1685166;84;20975;-42
2021/08/30 00:56:49;;;;;;;;;;;;;;;20.63;72.00;98640.03;1709328;84;21036;-41
2021/08/30 00:59:16;;;;;;;11.95;8.35;;;;;;;20.62;72.01;98630.86;1684278;83;21211;-42
2021/08/30 01:01:44;;;;;;;11.68;8.03;;;;;;;20.49;72.49;98630.09;1709779;83;21092;-41
2021/08/30 01:04:12;;;;;;;8.65;7.75;;;;;;;20.49;72.60;98628.11;1684296;83;21089;-42
2021/08/30 01:06:57;;;;;;;10.53;6.65;;;;;;;20.49;72.50;98630.87;1685020;83;21551;-42
2021/08/30 01:09:43;;;;;;;10.93;8.05;;;;;;;20.34;72.57;98603.03;1695115;82;21032;-41
2021/08/30 01:12:15;;;;;;;15.23;8.33;;;;;;;20.49;72.86;98626.73;1694712;82;21145;-41
2021/08/30 01:14:51;;;;;;;11.80;7.85;;;;;;;20.48;72.97;98631.33;1701509;82;20996;-41
2021/08/30 01:17:18;;;;;;;11.48;7.65;;;;;;;20.46;73.08;98623.51;1665446;85;21041;-42
2021/08/30 01:20:06;;;;;;;11.48;7.80;;;;;;;20.49;73.12;98621.84;1659428;86;21049;-42
2021/08/30 01:22:34;;;;;;;10.58;7.35;;;;;;;20.51;72.94;98611.16;1683897;83;21080;-41
2021/08/30 01:25:00;;;;;;;11.68;7.80;;;;;;;20.48;72.97;98612.06;1660214;83;21865;-41
2021/08/30 01:27:29;;;;;;;9.28;8.10;;;;;;;20.44;73.14;98608.02;1683664;85;20970;-42
2021/08/30 01:30:08;;;;;;;9.50;7.70;;;;;;;20.43;73.25;98610.61;1661207;83;21650;-41
2021/08/30 01:32:40;;;;;;;9.83;7.92;;;;;;;20.46;73.29;98611.72;1685023;83;21641;-41
2021/08/30 01:35:13;;;;;;;10.10;8.18;;;;;;;20.48;73.35;98609.30;1660682;83;21041;-41
2021/08/30 01:37:40;;;;;;;11.00;8.05;;;;;;;20.50;73.36;98603.50;1668642;83;21844;-41
2021/08/30 01:40:11;;;;;;;10.65;7.72;;;;;;;20.48;73.16;98605.17;1689539;82;21527;-41
2021/08/30 01:42:40;;;;;;;10.78;7.25;;;;;;;20.45;73.18;98607.42;1708927;82;21053;-41
2021/08/30 01:45:11;;;;;;;13.85;9.08;;;;;;;20.43;73.28;98608.48;1691145;82;21100;-42
2021/08/30 01:47:38;;;;;;;10.25;8.05;;;;;;;20.41;73.45;98618.56;1685061;82;21119;-41
2021/08/30 01:50:06;;;;;;;13.83;7.87;;;;;;;20.41;73.58;98625.44;1703503;82;21091;-41
2021/08/30 01:52:36;;;;;;;10.58;7.45;;;;;;;20.44;73.49;98623.77;1705057;82;21072;-41
2021/08/30 01:55:33;;;;;;;14.18;8.20;;;;;;;20.46;73.44;98641.41;1708495;82;21100;-41
2021/08/30 02:03:26;;;;;;;10.95;7.92;;;;;;;20.42;73.61;98681.28;1697348;82;21139;-41
2021/08/30 02:06:04;;;;;;;12.40;7.85;;;;;;;20.44;73.64;98704.39;1721101;82;21048;-41
2021/08/30 02:08:33;;;;;;;9.68;7.92;;;;;;;20.51;73.48;98707.53;1700442;84;20982;-42
2021/08/30 02:11:05;;;;;;;11.23;8.37;;;;;;;20.56;73.38;98730.39;1680903;83;21058;-41
2021/08/30 02:13:31;;;;;;;13.35;8.28;;;;;;;20.59;73.24;98721.23;1716509;82;21036;-41
2021/08/30 02:16:00;;;;;;;10.98;8.15;;;;;;;20.60;73.27;98717.28;1696219;82;21139;-42
2021/08/30 02:18:39;;;;;;;11.15;8.00;;;;;;;20.69;73.17;98704.98;1694122;82;20940;-42
2021/08/30 02:21:50;;;;;;;11.35;8.38;;;;;;;20.70;73.05;98716.16;1691961;82;20987;-41
2021/08/30 02:24:42;;;;;;;13.90;9.10;;;;;;;20.66;73.24;98708.62;1709172;82;21130;-41
2021/08/30 02:27:22;;;;;;;13.00;8.15;;;;;;;20.63;73.25;98680.58;1702258;84;22182;-41
2021/08/30 02:29:54;;;;;;;14.03;8.80;;;;;;;20.61;73.39;98685.77;1700876;83;21111;-41
2021/08/30 02:32:21;;;;;;;12.50;8.70;;;;;;;20.65;73.39;98671.28;1683565;83;21069;-41
2021/08/30 02:34:51;;;;;;;13.35;9.30;;;;;;;20.66;73.40;98675.58;1680596;82;21465;-41
2021/08/30 02:37:18;;;;;;;9.50;7.92;;;;;;;20.65;73.28;98690.55;1689617;83;21027;-41
2021/08/30 02:39:47;;;;;;;14.05;8.20;;;;;;;20.66;73.34;98686.59;1689419;82;21009;-41
2021/08/30 02:42:14;;;;;;;10.72;9.15;;;;;;;20.71;73.21;98668.91;1691571;84;21052;-41
2021/08/30 02:44:45;;;;;;;11.50;9.20;;;;;;;20.73;73.23;98651.91;1678695;84;21592;-41
2021/08/30 02:47:13;;;;;;;;;;;;;;;20.70;73.23;98641.80;1694085;82;20998;-41
2021/08/30 02:49:42;;;;;;;10.80;8.23;;;;;;;20.66;73.40;98637.02;1686074;82;20227;-41
2021/08/30 02:52:11;;;;;;;13.93;8.65;;;;;;;20.57;73.66;98640.45;1702153;84;21607;-41
2021/08/30 02:54:38;;;;;;;15.35;9.00;;;;;;;20.58;73.65;98645.33;1692659;83;21105;-41
2021/08/30 02:57:05;;;;;;;11.33;9.28;;;;;;;20.56;73.76;98660.17;1690272;83;21072;-41
2021/08/30 02:59:33;;;;;;;12.98;9.30;;;;;;;20.55;73.89;98670.41;1701103;83;21047;-42
2021/08/30 03:01:59;;;;;;;9.83;8.23;;;;;;;20.55;73.92;98676.52;1711842;83;21576;-41
2021/08/30 03:04:27;;;;;;;12.43;8.88;;;;;;;20.59;73.87;98667.53;1732366;80;21025;-41
2021/08/30 03:06:54;;;;;;;12.70;9.20;;;;;;;20.57;73.86;98676.26;1745870;80;21078;-41
2021/08/30 03:09:21;;;;;;;11.12;8.73;;;;;;;20.54;73.98;98677.13;1755290;80;21091;-41
2021/08/30 03:11:48;;;;;;;13.10;8.23;;;;;;;20.52;74.00;98678.80;1773178;80;21508;-41
2021/08/30 03:14:16;;;;;;;10.55;8.18;;;;;;;20.52;74.07;98675.44;1765695;80;20949;-41
2021/08/30 03:16:42;;;;;;;12.23;9.00;;;;;;;20.53;74.02;98666.55;1750524;80;21606;-41
2021/08/30 03:19:11;;;;;;;12.98;9.18;;;;;;;20.52;74.06;98663.65;1709399;83;21146;-41
2021/08/30 03:21:37;;;;;;;11.45;8.45;;;;;;;20.48;74.14;98664.38;1708404;83;21495;-41
2021/08/30 03:24:06;;;;;;;15.00;8.40;;;;;;;20.46;74.20;98653.80;1704750;83;21012;-41
2021/08/30 03:26:33;;;;;;;9.95;8.78;;;;;;;20.49;74.16;98646.62;1686321;85;21039;-41
2021/08/30 03:28:59;;;;;;;11.73;9.33;;;;;;;20.47;74.20;98642.17;1705350;83;21042;-41
2021/08/30 03:31:27;;;;;;;12.15;8.78;;;;;;;20.43;74.30;98635.39;1706462;83;21538;-41
2021/08/30 03:33:56;;;;;;;11.97;8.20;;;;;;;20.37;74.43;98632.45;1738131;80;20978;-41
2021/08/30 03:36:22;;;;;;;10.00;8.65;;;;;;;20.36;74.50;98629.53;1752232;80;22264;-41
2021/08/30 03:38:49;;;;;;;13.80;9.55;;;;;;;20.36;74.52;98629.53;1727418;80;21064;-41
2021/08/30 03:41:16;;;;;;;16.70;9.63;;;;;;;20.34;74.61;98628.41;1719390;80;21069;-41
2021/08/30 03:43:42;;;;;;;13.30;9.00;;;;;;;20.30;74.64;98629.91;1781890;80;21151;-41
2021/08/30 03:46:11;;;;;;;11.08;8.23;;;;;;;20.24;74.74;98633.02;1775979;80;21540;-41
2021/08/30 03:48:39;;;;;;;12.60;8.40;;;;;;;20.25;74.69;98628.28;1755333;80;21496;-41
2021/08/30 03:51:06;;;;;;;14.53;8.80;;;;;;;20.25;74.77;98630.44;1781710;80;21002;-41
2021/08/30 03:53:33;;;;;;;14.05;8.75;;;;;;;20.26;74.79;98633.36;1765573;80;21065;-41
2021/08/30 03:56:00;;;;;;;9.58;8.35;;;;;;;20.25;74.81;98637.31;1754577;80;21625;-41
2021/08/30 03:58:26;;;;;;;15.38;8.48;;;;;;;20.25;74.78;98630.44;1750709;80;21044;-41
2021/08/30 04:00:53;;;;;;;10.58;8.55;;;;;;;20.00;74.54;98582.29;1666324;83;21015;-41
2021/08/30 04:03:20;;;;;;;10.68;8.48;;;;;;;20.32;74.39;98633.00;1734990;80;21067;-41
2021/08/30 04:05:49;;;;;;;11.80;8.70;;;;;;;20.32;74.44;98640.48;1740324;80;21108;-42
2021/08/30 04:08:16;;;;;;;9.78;8.00;;;;;;;20.31;74.46;98638.94;1751049;82;21033;-41
2021/08/30 04:10:42;;;;;;;11.10;7.62;;;;;;;20.31;74.35;98642.47;1700550;83;21037;-41
2021/08/30 04:13:09;;;;;;;13.40;9.48;;;;;;;20.39;74.29;98645.75;1696955;83;21424;-41
2021/08/30 04:15:35;;;;;;;14.33;9.08;;;;;;;20.44;74.16;98647.95;1703445;83;21031;-41
2021/08/30 04:18:02;;;;;;;12.28;8.48;;;;;;;20.50;74.28;98648.16;1740969;80;21013;-41
2021/08/30 04:20:30;;;;;;;11.55;7.80;;;;;;;20.57;74.09;98647.95;1723621;80;21539;-41
2021/08/30 04:22:56;;;;;;;10.80;8.33;;;;;;;20.64;73.84;98642.96;1770853;80;20949;-42
2021/08/30 04:25:23;;;;;;;11.75;8.48;;;;;;;20.74;73.60;98636.94;1782049;80;21016;-42
2021/08/30 04:27:51;;;;;;;14.03;8.05;;;;;;;20.77;73.36;98640.94;1776547;80;21022;-41
2021/08/30 04:30:17;;;;;;;10.35;7.83;;;;;;;20.76;73.22;98636.66;1781510;80;20993;-41
2021/08/30 04:32:44;;;;;;;13.08;8.15;;;;;;;20.77;73.39;98638.78;1764149;80;21143;-41
2021/08/30 04:35:11;;;;;;;10.82;8.08;;;;;;;20.84;73.19;98644.06;1750381;80;21543;-41
2021/08/30 04:37:37;;;;;;;13.83;8.73;;;;;;;20.87;73.05;98650.66;1749070;80;21049;-41
2021/08/30 04:40:06;;;;;;;12.82;8.95;;;;;;;20.87;73.13;98661.67;1751513;81;20990;-42
2021/08/30 04:42:33;;;;;;;13.50;7.70;;;;;;;20.89;72.90;98689.56;1748550;82;21084;-41
2021/08/30 04:45:00;;;;;;;12.50;8.60;;;;;;;20.88;72.83;98715.58;1730466;80;21130;-41
2021/08/30 04:47:27;;;;;;;14.83;8.95;;;;;;;20.89;72.88;98731.67;1763419;80;21036;-41
2021/08/30 04:49:55;;;;;;;11.85;8.60;;;;;;;20.91;72.70;98727.87;1773606;80;20973;-41
2021/08/30 04:52:21;;;;;;;11.00;8.05;;;;;;;20.86;72.53;98711.91;1756247;80;21013;-41
2021/08/30 04:54:48;;;;;;;10.13;7.95;;;;;;;20.80;72.56;98675.10;1755806;80;21108;-41
2021/08/30 04:57:15;;;;;;;14.28;9.30;;;;;;;20.76;72.64;98625.64;1763011;80;21118;-41
2021/08/30 04:59:41;;;;;;;14.28;8.38;;;;;;;20.68;72.76;98539.55;1751156;81;21040;-41
2021/08/30 05:02:08;;;;;;;11.95;8.30;;;;;;;20.52;73.06;98510.83;1771829;80;20952;-42
2021/08/30 05:04:34;;;;;;;13.00;8.78;;;;;;;20.41;73.55;98531.06;1725404;80;21013;-41
2021/08/30 05:07:03;;;;;;;14.95;7.97;;;;;;;20.37;73.78;98598.03;1743367;81;20977;-41
2021/08/30 05:09:30;;;;;;;12.78;8.93;;;;;;;20.38;73.83;98653.87;1742940;80;21113;-41
2021/08/30 05:11:57;;;;;;;12.03;8.63;;;;;;;20.38;73.83;98661.50;1738192;82;21523;-41
2021/08/30 05:14:24;;;;;;;14.93;8.08;;;;;;;20.42;73.83;98701.93;1717677;81;21535;-41
2021/08/30 05:16:50;;;;;;;14.53;8.18;;;;;;;20.45;73.58;98691.40;1679069;85;21068;-41
2021/08/30 05:19:17;;;;;;;12.63;9.28;;;;;;;20.46;73.71;98684.08;1689799;84;21062;-41
2021/08/30 05:21:43;;;;;;;10.90;8.50;;;;;;;20.53;73.97;98678.94;1703200;82;21164;-41
2021/08/30 05:24:10;;;;;;;12.98;8.48;;;;;;;20.63;73.92;98668.18;1706566;84;21605;-42
2021/08/30 05:26:37;;;;;;;14.35;8.90;;;;;;;20.70;73.36;98658.32;1706741;84;20993;-41
2021/08/30 05:29:04;;;;;;;14.85;8.88;;;;;;;20.75;73.01;98647.52;1736616;82;21058;-42
2021/08/30 05:31:31;;;;;;;15.05;9.43;;;;;;;20.75;72.95;98645.36;1742851;82;21057;-41
2021/08/30 05:33:58;;;;;;;11.30;8.25;;;;;;;20.74;73.01;98645.20;1739695;82;21802;-41
2021/08/30 05:36:26;;;;;;;13.85;8.45;;;;;;;20.75;73.07;98655.00;1742137;81;21513;-41
2021/08/30 05:38:53;;;;;;;12.40;8.80;;;;;;;20.82;72.90;98642.36;1738390;81;21010;-41
2021/08/30 05:41:20;;;;;;;12.80;9.55;;;;;;;20.86;72.73;98649.91;1740534;80;21015;-41
2021/08/30 05:43:47;;;;;;;12.33;9.08;;;;;;;20.85;72.76;98649.75;1738528;82;20998;-41
2021/08/30 05:46:16;;;;;;;11.53;8.25;;;;;;;20.86;73.02;98641.65;1736484;80;21130;-42
2021/08/30 05:48:47;;;;;;;10.43;8.43;;;;;;;20.90;72.96;98646.42;1736646;80;21006;-42
2021/08/30 05:51:13;;;;;;;11.18;8.53;;;;;;;20.98;72.72;98650.47;1743166;82;21193;-41
2021/08/30 05:53:41;;;;;;;16.25;9.43;;;;;;;21.04;72.66;98643.17;1735922;82;21532;-41
2021/08/30 05:56:08;;;;;;;17.27;9.10;;;;;;;21.07;72.61;98649.16;1743518;82;21018;-42
2021/08/30 05:58:36;;;;;;;11.33;8.48;;;;;;;21.08;72.26;98658.20;1748955;80;21118;-41
2021/08/30 06:01:04;;;;;;;14.07;9.03;;;;;;;21.10;72.36;98655.18;1746598;80;21075;-43
2021/08/30 06:03:30;;;;;;;11.50;9.08;;;;;;;21.18;72.43;98642.70;1750152;80;21050;-43
2021/08/30 06:05:58;;;;;;;14.05;9.50;;;;;;;21.24;71.99;98631.27;1744361;80;21023;-43
2021/08/30 06:08:25;;;;;;;14.23;9.23;;;;;;;21.23;71.98;98629.73;1695408;83;21044;-43
2021/08/30 06:10:51;;;;;;;14.98;8.95;;;;;;;21.20;72.07;98638.88;1745603;80;21108;-43
2021/08/30 06:13:19;;;;;;;14.78;9.23;;;;;;;21.22;72.03;98635.08;1743203;80;21001;-43
2021/08/30 06:15:45;;;;;;;13.60;8.80;;;;;;;21.26;71.90;98629.42;1743214;81;20969;-43
2021/08/30 06:18:12;;;;;;;13.65;9.33;;;;;;;21.27;72.08;98631.58;1725288;80;21033;-43
2021/08/30 06:20:39;;;;;;;18.05;9.05;;;;;;;21.28;72.03;98643.55;1745689;80;21070;-42
2021/08/30 06:23:05;;;;;;;13.90;8.33;;;;;;;21.28;72.05;98634.50;1754110;80;21056;-43
2021/08/30 06:25:32;;;;;;;15.58;9.55;;;;;;;21.33;72.07;98633.31;1745691;80;21045;-43
2021/08/30 06:27:59;;;;;;;11.88;9.10;;;;;;;21.39;71.94;98638.42;1743040;82;20986;-43
2021/08/30 06:30:26;;;;;;;15.80;8.90;;;;;;;21.41;71.88;98638.72;1758422;80;21013;-42
2021/08/30 06:32:52;;;;;;;11.43;8.05;;;;;;;21.41;71.96;98618.65;1767313;80;21069;-43
2021/08/30 06:35:23;;;;;;;13.32;8.93;;;;;;;21.44;71.87;98619.14;1743217;81;21100;-43
2021/08/30 06:37:49;;;;;;;13.08;9.33;;;;;;;21.47;71.83;98616.86;1760957;80;20989;-41
2021/08/30 06:40:17;;;;;;;13.58;10.00;;;;;;;21.48;71.56;98617.02;1709998;82;21009;-41
2021/08/30 06:42:44;;;;;;;15.68;9.48;;;;;;;21.49;71.78;98621.33;1691798;82;21036;-41
2021/08/30 06:45:11;;;;;;;14.15;9.13;;;;;;;21.54;71.68;98624.88;1701795;83;21049;-41
2021/08/30 06:47:38;;;;;;;16.05;9.85;;;;;;;21.59;71.39;98614.01;1713021;82;21098;-41
2021/08/30 06:50:06;;;;;;;14.05;9.68;;;;;;;21.64;71.07;98624.45;1746372;80;20966;-41
2021/08/30 06:52:32;;;;;;;14.38;10.20;;;;;;;21.63;71.19;98627.69;1772763;80;21022;-41
2021/08/30 06:54:59;;;;;;;13.90;9.20;;;;;;;21.62;71.10;98623.39;1746648;80;20979;-41
2021/08/30 06:57:33;;;;;;;11.50;9.25;;;;;;;21.62;71.07;98619.25;1741611;82;21017;-41
2021/08/30 06:59:57;;;;;;;16.02;9.95;;;;;;;21.64;70.60;98609.89;1741420;81;21369;-41
2021/08/30 07:02:24;;;;;;;16.23;9.75;;;;;;;21.63;70.63;98597.34;1742165;82;21013;-41
2021/08/30 07:04:50;;;;;;;16.05;9.63;;;;;;;21.60;70.76;98607.88;1743265;82;21076;-41
2021/08/30 07:07:17;;;;;;;9.93;8.83;;;;;;;21.67;70.93;98622.80;1743086;82;21029;-41
2021/08/30 07:09:43;;;;;;;13.13;9.18;;;;;;;21.75;70.58;98612.25;1743101;82;21034;-41
2021/08/30 07:12:11;;;;;;;13.22;9.18;;;;;;;21.79;70.59;98615.03;1743206;81;20973;-41
2021/08/30 07:14:39;;;;;;;12.47;9.88;;;;;;;21.85;70.65;98625.64;1743127;82;20938;-41
2021/08/30 07:17:05;;;;;;;13.53;9.20;;;;;;;21.90;70.50;98622.30;1770656;80;21001;-41
2021/08/30 07:19:32;;;;;;;13.05;9.70;;;;;;;21.96;70.28;98630.18;1773925;80;20946;-41
2021/08/30 07:21:59;;;;;;;13.30;9.78;;;;;;;22.02;69.83;98617.33;1773965;80;21045;-41
2021/08/30 07:24:26;;;;;;;13.83;10.32;;;;;;;22.04;69.58;98596.92;1773966;80;21144;-41
2021/08/30 07:26:53;;;;;;;16.45;9.88;;;;;;;22.05;69.45;98608.73;1773814;80;21016;-41
2021/08/30 07:29:19;;;;;;;16.32;9.98;;;;;;;22.07;69.30;98629.77;1773877;80;21021;-41
2021/08/30 07:31:46;;;;;;;14.45;9.50;;;;;;;22.15;69.75;98642.67;1773796;80;20942;-41
2021/08/30 07:34:12;;;;;;;15.38;9.83;;;;;;;22.25;69.96;98641.48;1773816;80;21038;-41
2021/08/30 07:36:40;;;;;;;12.88;9.95;;;;;;;22.37;69.70;98635.06;1773843;80;21149;-41
2021/08/30 07:39:06;;;;;;;16.30;10.35;;;;;;;22.45;69.49;98632.95;1755431;80;21028;-41
2021/08/30 07:41:33;;;;;;;14.05;10.13;;;;;;;22.49;69.24;98623.91;1743031;82;21547;-41
2021/08/30 07:43:59;;;;;;;16.97;10.00;;;;;;;22.58;68.81;98627.30;1743214;82;20965;-41
2021/08/30 07:46:26;;;;;;;12.65;9.85;;;;;;;22.66;68.30;98623.61;1743133;82;21516;-41
2021/08/30 07:48:53;;;;;;;19.87;10.65;;;;;;;22.69;68.24;98612.43;1743312;81;21149;-41
2021/08/30 07:51:20;;;;;;;11.75;10.10;;;;;;;22.70;68.26;98604.33;1742947;82;20985;-41
2021/08/30 07:53:47;;;;;;;17.12;10.43;;;;;;;22.71;68.28;98598.94;1743311;81;20965;-41
2021/08/30 07:56:14;;;;;;;16.23;10.82;;;;;;;22.73;68.57;98617.83;1743157;82;21065;-41
2021/08/30 07:58:42;;;;;;;15.83;11.53;;;;;;;22.78;67.54;98616.61;1743217;82;21074;-41
2021/08/30 08:01:08;;;;;;;18.90;11.45;;;;;;;22.78;66.96;98618.60;1743040;82;21132;-41
2021/08/30 08:03:35;;;;;;;18.02;11.55;;;;;;;22.74;67.07;98613.84;1756707;80;22096;-41
2021/08/30 08:06:01;;;;;;;21.68;11.20;;;;;;;22.69;67.33;98588.95;1756393;81;20965;-41
2021/08/30 08:08:29;;;;;;;21.17;11.65;;;;;;;22.70;67.40;98614.00;1756352;81;21931;-41
2021/08/30 08:10:56;;;;;;;15.93;10.45;;;;;;;22.73;67.38;98608.93;1756644;81;21095;-41
2021/08/30 08:13:23;;;;;;;15.75;11.03;;;;;;;22.76;67.04;98576.22;1756554;81;21886;-41
2021/08/30 08:17:11;;;;;;;15.08;10.93;;;;;;;22.88;66.97;98608.48;1778705;79;22811;-41
2021/08/30 08:19:38;;;;;;;16.93;10.90;;;;;;;22.84;66.93;98602.95;1738906;82;20959;-41
2021/08/30 08:22:05;;;;;;;15.85;11.30;;;;;;;22.88;66.63;98603.56;1738743;82;21063;-41
2021/08/30 08:24:33;;;;;;;16.17;11.40;;;;;;;22.95;66.36;98599.86;1738776;82;21034;-41
2021/08/30 08:27:00;;;;;;;18.95;11.28;;;;;;;23.01;66.45;98605.55;1738984;82;20966;-41
2021/08/30 08:29:28;;;;;;;21.65;11.05;;;;;;;23.05;66.35;98606.16;1731022;81;20945;-41
2021/08/30 08:31:54;;;;;;;22.02;11.65;;;;;;;23.08;66.38;98595.58;1727117;83;20949;-41
2021/08/30 08:34:21;;;;;;;21.73;10.53;;;;;;;23.15;66.16;98602.16;1736680;80;21187;-41
2021/08/30 08:36:47;;;;;;;19.00;11.15;;;;;;;23.26;66.08;98594.17;1756802;81;21372;-41
2021/08/30 08:39:14;;;;;;;22.70;12.03;;;;;;;23.36;65.79;98593.53;1756971;81;20953;-41
2021/08/30 08:41:40;;;;;;;17.12;11.70;;;;;;;23.42;65.25;98593.68;1756924;81;21049;-41
2021/08/30 08:44:08;;;;;;;18.17;12.03;;;;;;;23.46;65.46;98590.16;1757032;81;20997;-41
2021/08/30 08:46:38;;;;;;;15.55;11.35;;;;;;;23.51;65.66;98592.30;1751368;81;21794;-41
2021/08/30 08:49:06;;;;;;;18.77;11.38;;;;;;;23.56;65.50;98596.59;1748592;82;20910;-41
2021/08/30 08:51:33;;;;;;;21.75;11.57;;;;;;;23.63;65.28;98583.80;1748572;82;21032;-41
2021/08/30 08:54:00;;;;;;;21.65;12.33;;;;;;;23.70;65.63;98584.87;1732960;81;21587;-41
2021/08/30 08:56:27;;;;;;;21.30;12.80;;;;;;;23.76;65.04;98588.55;1755260;80;21037;-41
2021/08/30 08:58:54;;;;;;;22.70;12.50;;;;;;;23.82;65.01;98592.19;1756865;81;21111;-41
2021/08/30 09:01:25;;;;;;;23.18;11.57;;;;;;;23.89;65.07;98584.80;1756979;80;21212;-41
2021/08/30 09:03:56;;;;;;;28.40;13.08;;;;;;;24.01;65.23;98586.59;1737795;81;21036;-41
2021/08/30 09:06:30;;;;;;;22.87;12.75;;;;;;;24.16;64.12;98581.88;1726740;82;25821;-41
2021/08/30 09:09:01;;;;;;;25.27;14.00;;;;;;;24.27;63.79;98582.17;1741485;81;21084;-41
2021/08/30 09:11:44;;;;;;;20.52;13.22;;;;;;;24.35;62.97;98579.83;1756932;80;21152;-41
2021/08/30 09:14:22;;;;;;;22.02;13.60;;;;;;;24.42;63.06;98574.69;1756855;81;21075;-41
2021/08/30 09:17:02;;;;;;;24.10;13.95;;;;;;;24.50;62.71;98557.84;1747402;81;20970;-41
2021/08/30 09:19:28;;;;;;;;;;;;;;;24.60;62.76;98559.94;1743453;80;21504;-41
2021/08/30 09:21:55;;;;;;;20.43;13.43;;;;;;;24.68;62.25;98570.20;1744115;80;20172;-41
2021/08/30 09:24:24;;;;;;;21.17;13.70;;;;;;;24.75;61.63;98574.60;1714243;82;21531;-41
2021/08/30 09:27:04;;;;;;;24.47;13.90;;;;;;;24.85;61.28;98566.98;1713884;82;21041;-41
2021/08/30 09:29:35;;;;;;;;;;;;;;;24.94;60.75;98575.25;1742326;80;20938;-41
2021/08/30 09:32:12;;;;;;;21.93;14.75;;;;;;;25.04;61.36;98582.24;1743333;82;20176;-41
2021/08/30 09:34:46;;;;;;;27.50;15.55;;;;;;;25.14;60.88;98585.08;1743503;81;21896;-41
2021/08/30 09:37:19;;;;;;;24.90;14.93;;;;;;;25.31;60.05;98588.94;1743231;81;21793;-41
2021/08/30 09:39:57;;;;;;;27.48;14.35;;;;;;;25.38;59.39;98579.45;1743222;82;20993;-41
2021/08/30 09:42:25;;;;;;;26.62;15.00;;;;;;;25.42;59.42;98570.31;1743226;82;21009;-41
2021/08/30 09:44:54;;;;;;;20.02;14.05;;;;;;;25.47;58.42;98575.95;1743198;82;21053;-41
2021/08/30 09:47:22;;;;;;;21.07;13.98;;;;;;;25.52;58.18;98572.52;1716868;81;21088;-41
2021/08/30 09:49:52;;;;;;;21.48;14.28;;;;;;;25.59;57.81;98575.56;1734274;80;21020;-41
2021/08/30 09:52:22;;;;;;;19.70;13.68;;;;;;;25.62;57.79;98573.83;1713833;82;20964;-41
2021/08/30 09:54:51;;;;;;;22.80;13.98;;;;;;;25.62;57.97;98576.59;1713569;83;21040;-41
2021/08/30 09:57:18;;;;;;;19.95;13.90;;;;;;;25.66;57.53;98561.92;1713870;83;21065;-41
2021/08/30 09:59:45;;;;;;;23.70;13.53;;;;;;;25.75;57.27;98556.26;1713616;82;21575;-41
2021/08/30 10:02:17;;;;;;;24.12;13.65;;;;;;;25.89;57.42;98558.24;1713880;83;21069;-41
2021/08/30 10:04:44;;;;;;;22.67;13.93;;;;;;;26.08;56.99;98566.48;1713708;83;20930;-41
2021/08/30 10:07:12;;;;;;;19.87;13.77;;;;;;;26.31;56.69;98568.34;1713838;83;21038;-41
2021/08/30 10:09:41;;;;;;;18.17;13.68;;;;;;;26.49;55.45;98556.80;1702341;82;20953;-41
2021/08/30 10:12:08;;;;;;;20.57;14.37;;;;;;;26.61;54.98;98552.92;1714043;82;21557;-41
2021/08/30 10:14:36;;;;;;;20.52;13.88;;;;;;;26.72;55.12;98555.84;1714605;80;21097;-41
2021/08/30 10:17:04;;;;;;;18.60;13.60;;;;;;;26.82;54.75;98553.02;1722265;83;20992;-41
2021/08/30 10:19:34;;;;;;;21.27;14.47;;;;;;;27.01;54.70;98550.12;1728411;80;20949;-41
2021/08/30 10:22:18;;;;;;;17.62;13.85;;;;;;;27.21;54.30;98552.06;1740640;80;20914;-41
2021/08/30 10:24:44;;;;;;;20.82;14.60;;;;;;;27.37;54.00;98564.61;1756906;81;21515;-41
2021/08/30 10:27:11;;;;;;;22.60;14.15;;;;;;;27.55;53.33;98566.44;1756736;81;21150;-41
2021/08/30 10:29:40;;;;;;;20.95;14.58;;;;;;;27.79;53.16;98565.38;1756640;81;21016;-41
2021/08/30 10:32:20;;;;;;;20.17;12.93;;;;;;;28.00;51.89;98555.01;1756778;81;21021;-41
2021/08/30 10:34:53;;;;;;;22.67;14.30;;;;;;;28.14;52.16;98562.33;1756703;81;20998;-41
2021/08/30 10:37:20;;;;;;;20.97;13.55;;;;;;;28.18;52.07;98564.25;1756687;81;21029;-41
2021/08/30 10:39:52;;;;;;;22.10;14.47;;;;;;;28.15;52.02;98549.92;1753440;80;21593;-41
2021/08/30 10:42:19;;;;;;;23.73;14.43;;;;;;;28.12;51.68;98559.30;1738467;80;20902;-41
2021/08/30 10:44:53;;;;;;;20.32;14.75;;;;;;;28.05;51.99;98564.03;1726537;83;20985;-41
2021/08/30 10:47:25;;;;;;;18.25;13.35;;;;;;;28.03;51.72;98559.58;1752566;80;20977;-41
2021/08/30 10:49:53;;;;;;;25.62;13.75;;;;;;;28.04;52.21;98551.36;1738925;81;21081;-41
2021/08/30 10:52:19;;;;;;;17.23;12.50;;;;;;;28.17;51.89;98547.42;1756557;81;21957;-41
2021/08/30 10:54:55;;;;;;;20.82;13.22;;;;;;;28.35;51.99;98544.98;1756639;81;21063;-41
2021/08/30 10:57:39;;;;;;;18.92;13.75;;;;;;;28.60;51.52;98554.47;1756537;81;21023;-41
2021/08/30 11:00:10;;;;;;;20.72;13.65;;;;;;;28.86;50.21;98548.73;1756493;81;21534;-41
2021/08/30 11:02:45;;;;;;;23.30;14.13;;;;;;;29.09;49.65;98552.35;1756742;81;21002;-41
2021/08/30 11:05:12;;;;;;;21.57;15.15;;;;;;;29.31;48.31;98548.21;1743991;80;21093;-41
2021/08/30 11:07:39;;;;;;;20.50;14.18;;;;;;;29.51;47.53;98555.59;1756908;80;20929;-41
2021/08/30 11:10:09;;;;;;;22.58;14.07;;;;;;;29.65;47.52;98559.52;1756655;81;20886;-41
2021/08/30 11:12:42;;;;;;;19.42;13.88;;;;;;;29.84;47.23;98568.77;1756923;81;21485;-41
2021/08/30 11:15:10;;;;;;;21.80;13.15;;;;;;;30.08;46.36;98560.64;1756547;81;20937;-41
2021/08/30 11:17:37;;;;;;;22.52;13.30;;;;;;;30.29;46.72;98561.87;1746116;81;21789;-41
2021/08/30 11:20:05;;;;;;;22.22;14.05;;;;;;;30.47;46.59;98559.92;1742997;82;20954;-41
2021/08/30 11:22:32;;;;;;;27.17;13.68;;;;;;;30.52;45.63;98549.34;1738189;80;21025;-41
2021/08/30 11:25:01;;;;;;;26.62;13.93;;;;;;;30.51;45.33;98561.05;1743902;80;20966;-41
2021/08/30 11:27:33;;;;;;;16.32;13.30;;;;;;;30.59;45.64;98571.20;1743678;81;21053;-41
2021/08/30 11:30:03;;;;;;;18.12;13.30;;;;;;;30.77;45.74;98572.64;1736884;82;21563;-41
2021/08/30 11:32:32;;;;;;;24.05;13.45;;;;;;;30.97;45.77;98578.53;1751383;81;21006;-41
2021/08/30 11:34:59;;;;;;;17.65;13.43;;;;;;;31.16;44.77;98578.70;1763655;81;21021;-41
2021/08/30 11:37:30;;;;;;;18.90;13.05;;;;;;;31.27;44.96;98591.23;1763956;81;21061;-42